Berea, Ohio
Current Conditions -  °F | °C
As of 12:51 PM on Thursday 30 Oct 2014 (Local Time) from KCLE Reporting Station
Broken Clouds Broken Clouds  
Wind Chill: 50°   Ceiling: 4200
Heat Index: 50°   Visibility: 10mi
Dew Point: 37°   Wind: 9mph
Humidity: 61%   Direction: 280°W
Pressure: 30.13"   Gusts: NA
Location:  41.37°N, 81.85°W
Report Text: KCLE 301651Z 28008KT 10SM SCT031 BKN042 BKN250 10/03 A3013 RMK AO2 SLP207 T01000028 $
Loading
Personal Weather Stations






























Interactive Weather Map New forecast layout! Learn more

10-Day Weather Forecast

Advertisements
Track Severe Weather on mobile